createdAt,value
2022-11-08T00:00:44.709Z,11.00
2022-11-08T00:03:12.899Z,10.90
2022-11-08T00:05:58.205Z,11.00
2022-11-08T00:08:43.421Z,10.90
2022-11-08T00:11:28.792Z,10.90
2022-11-08T00:13:59.795Z,10.90
2022-11-08T00:16:30.035Z,10.90
2022-11-08T00:18:58.472Z,10.90
2022-11-08T00:21:26.462Z,10.90
2022-11-08T00:23:54.812Z,10.80
2022-11-08T00:26:22.812Z,10.70
2022-11-08T00:28:50.888Z,10.70
2022-11-08T00:31:18.836Z,10.70
2022-11-08T00:33:48.159Z,10.70
2022-11-08T00:36:16.343Z,10.70
2022-11-08T00:38:44.608Z,10.60
2022-11-08T00:41:13.090Z,10.60
2022-11-08T00:43:41.302Z,10.60
2022-11-08T00:46:09.526Z,10.50
2022-11-08T00:48:37.757Z,10.40
2022-11-08T00:51:08.833Z,10.50
2022-11-08T00:53:38.271Z,10.40
2022-11-08T00:56:12.190Z,10.40
2022-11-08T00:58:41.455Z,10.30
2022-11-08T01:01:10.805Z,10.30
2022-11-08T01:03:39.164Z,10.30
2022-11-08T01:06:10.612Z,10.30
2022-11-08T01:08:39.134Z,10.30
2022-11-08T01:11:09.139Z,10.30
2022-11-08T01:13:37.205Z,10.30
2022-11-08T01:16:08.349Z,10.30
2022-11-08T01:18:36.353Z,10.30
2022-11-08T01:21:06.473Z,10.20
2022-11-08T01:23:36.662Z,10.20
2022-11-08T01:26:06.388Z,10.30
2022-11-08T01:28:34.977Z,10.30
2022-11-08T01:31:06.439Z,10.20
2022-11-08T01:33:35.201Z,10.20
2022-11-08T01:36:03.332Z,10.10
2022-11-08T01:38:31.766Z,10.20
2022-11-08T01:41:02.350Z,10.20
2022-11-08T01:43:40.482Z,10.10
2022-11-08T01:46:35.717Z,10.10
2022-11-08T01:49:33.783Z,10.00
2022-11-08T01:52:09.262Z,10.00
2022-11-08T01:54:43.029Z,10.10
2022-11-08T01:57:15.829Z,10.00
2022-11-08T01:59:46.164Z,10.00
2022-11-08T02:02:15.056Z,10.10
2022-11-08T02:04:44.437Z,10.20
2022-11-08T02:07:14.247Z,10.20
2022-11-08T02:09:44.606Z,10.30
2022-11-08T02:12:14.763Z,10.30
2022-11-08T02:14:42.939Z,10.40
2022-11-08T02:17:12.004Z,10.40
2022-11-08T02:19:45.377Z,10.40
2022-11-08T02:22:28.564Z,10.50
2022-11-08T02:25:00.396Z,10.50
2022-11-08T02:27:28.597Z,10.50
2022-11-08T02:29:58.009Z,10.40
2022-11-08T02:32:26.164Z,10.40
2022-11-08T02:34:56.931Z,10.40
2022-11-08T02:37:26.596Z,10.30
2022-11-08T02:39:54.859Z,10.20
2022-11-08T02:42:24.387Z,10.30
2022-11-08T02:44:52.698Z,10.20
2022-11-08T02:47:21.101Z,10.20
2022-11-08T02:49:49.335Z,10.20
2022-11-08T02:52:19.961Z,10.20
2022-11-08T02:54:48.104Z,10.20
2022-11-08T02:57:16.351Z,10.10
2022-11-08T02:59:45.724Z,10.10
2022-11-08T03:02:13.940Z,10.10
2022-11-08T03:04:42.035Z,10.10
2022-11-08T03:07:10.101Z,10.00
2022-11-08T03:09:38.241Z,9.90
2022-11-08T03:12:09.155Z,10.00
2022-11-08T03:14:37.827Z,10.00
2022-11-08T03:17:07.431Z,10.00
2022-11-08T03:19:35.650Z,9.90
2022-11-08T03:22:04.029Z,9.90
2022-11-08T03:24:34.877Z,10.00
2022-11-08T03:27:02.943Z,10.00
2022-11-08T03:29:30.963Z,10.00
2022-11-08T03:31:59.032Z,10.00
2022-11-08T03:34:28.373Z,10.20
2022-11-08T03:36:56.359Z,10.20
2022-11-08T03:39:24.305Z,10.20
2022-11-08T03:41:52.272Z,10.30
2022-11-08T03:44:20.288Z,10.30
2022-11-08T03:46:48.240Z,10.30
2022-11-08T03:49:16.237Z,10.40
2022-11-08T03:51:45.876Z,10.30
2022-11-08T03:54:14.090Z,10.30
2022-11-08T03:56:42.367Z,10.30
2022-11-08T03:59:11.876Z,10.20
2022-11-08T04:01:40.360Z,10.10
2022-11-08T04:04:08.720Z,10.00
2022-11-08T04:06:36.836Z,9.90
2022-11-08T04:09:06.336Z,9.70
2022-11-08T04:11:54.306Z,9.80
2022-11-08T04:14:39.653Z,9.70
2022-11-08T04:17:07.740Z,9.60
2022-11-08T04:19:53.151Z,9.50
2022-11-08T04:22:21.118Z,9.50
2022-11-08T04:24:50.479Z,9.40
2022-11-08T04:27:18.479Z,9.40
2022-11-08T04:29:46.877Z,9.40
2022-11-08T04:32:14.811Z,9.40
2022-11-08T04:34:42.746Z,9.40
2022-11-08T04:37:10.651Z,9.30
2022-11-08T04:39:38.730Z,9.30
2022-11-08T04:42:08.072Z,9.30
2022-11-08T04:44:36.057Z,9.30
2022-11-08T04:47:04.138Z,9.20
2022-11-08T04:49:32.124Z,9.10
2022-11-08T04:52:00.227Z,9.20
2022-11-08T04:54:30.528Z,9.10
2022-11-08T04:56:58.569Z,9.20
2022-11-08T04:59:27.917Z,9.20
2022-11-08T05:01:56.209Z,9.20
2022-11-08T05:04:24.283Z,9.10
2022-11-08T05:06:52.284Z,9.20
2022-11-08T05:09:20.508Z,9.20
2022-11-08T05:11:48.519Z,9.10
2022-11-08T05:14:16.603Z,9.00
2022-11-08T05:16:45.953Z,9.00
2022-11-08T05:19:13.954Z,8.90
2022-11-08T05:21:59.208Z,8.90
2022-11-08T05:24:27.328Z,8.90
2022-11-08T05:26:55.523Z,8.90
2022-11-08T05:29:23.508Z,8.80
2022-11-08T05:31:53.013Z,8.90
2022-11-08T05:34:20.988Z,8.80
2022-11-08T05:36:48.975Z,8.80
2022-11-08T05:39:17.057Z,8.80
2022-11-08T05:41:45.071Z,8.80
2022-11-08T05:44:13.042Z,8.90
2022-11-08T05:46:41.070Z,8.90
2022-11-08T05:49:10.495Z,8.80
2022-11-08T05:51:38.558Z,8.80
2022-11-08T05:54:08.022Z,8.80
2022-11-08T05:56:36.721Z,8.70
2022-11-08T05:59:05.532Z,8.80
2022-11-08T06:01:36.369Z,8.70
2022-11-08T06:04:04.555Z,8.80
2022-11-08T06:06:33.969Z,8.80
2022-11-08T06:09:02.042Z,8.80
2022-11-08T06:11:30.158Z,8.80
2022-11-08T06:14:00.675Z,8.80
2022-11-08T06:16:28.646Z,8.80
2022-11-08T06:18:56.772Z,8.90
2022-11-08T06:21:27.313Z,8.80
2022-11-08T06:23:56.702Z,8.90
2022-11-08T06:26:25.237Z,8.90
2022-11-08T06:28:53.315Z,8.90
2022-11-08T06:31:21.381Z,9.00
2022-11-08T06:33:50.298Z,9.10
2022-11-08T06:36:18.498Z,9.10
2022-11-08T06:38:46.567Z,9.10
2022-11-08T06:41:19.812Z,9.20
2022-11-08T06:43:48.442Z,9.10
2022-11-08T06:46:16.950Z,9.20
2022-11-08T06:48:45.321Z,9.20
2022-11-08T06:51:15.046Z,9.20
2022-11-08T06:53:43.337Z,9.20
2022-11-08T06:56:14.171Z,9.20
2022-11-08T06:58:43.556Z,9.20
2022-11-08T07:01:12.378Z,9.20
2022-11-08T07:03:40.555Z,9.20
2022-11-08T07:06:09.425Z,9.30
2022-11-08T07:08:37.675Z,9.30
2022-11-08T07:11:06.789Z,9.40
2022-11-08T07:13:35.290Z,9.40
2022-11-08T07:16:07.313Z,9.40
2022-11-08T07:18:36.329Z,9.40
2022-11-08T07:21:04.593Z,9.40
2022-11-08T07:23:33.260Z,9.50
2022-11-08T07:26:04.794Z,9.50
2022-11-08T07:28:33.038Z,9.60
2022-11-08T07:31:02.311Z,9.60
2022-11-08T07:33:32.641Z,9.70
2022-11-08T07:36:00.957Z,9.80
2022-11-08T07:38:32.411Z,9.80
2022-11-08T07:41:02.269Z,9.90
2022-11-08T07:43:31.153Z,10.00
2022-11-08T07:46:11.623Z,10.10
2022-11-08T07:48:41.011Z,10.20
2022-11-08T07:51:09.029Z,10.30
2022-11-08T07:53:37.206Z,10.40
2022-11-08T07:56:05.621Z,10.40
2022-11-08T07:58:34.547Z,10.50
2022-11-08T08:01:03.467Z,10.60
2022-11-08T08:03:32.603Z,10.60
2022-11-08T08:06:02.147Z,10.70
2022-11-08T08:08:32.441Z,10.80
2022-11-08T08:11:01.334Z,10.90
2022-11-08T08:13:30.262Z,10.90
2022-11-08T08:16:02.026Z,11.00
2022-11-08T08:18:30.619Z,11.00
2022-11-08T08:20:59.471Z,11.00
2022-11-08T08:23:29.108Z,10.90
2022-11-08T08:25:57.442Z,10.90
2022-11-08T08:28:25.651Z,11.00
2022-11-08T08:30:53.651Z,11.10
2022-11-08T08:33:34.086Z,11.10
2022-11-08T08:36:02.575Z,11.10
2022-11-08T08:38:32.894Z,11.20
2022-11-08T08:41:02.257Z,11.40
2022-11-08T08:43:33.448Z,11.40
2022-11-08T08:46:02.574Z,11.40
2022-11-08T08:48:31.493Z,11.50
2022-11-08T08:50:59.629Z,11.60
2022-11-08T08:53:28.095Z,11.70
2022-11-08T08:55:57.589Z,11.80
2022-11-08T08:58:25.709Z,11.90
2022-11-08T09:03:41.972Z,12.10
2022-11-08T09:06:10.590Z,12.10
2022-11-08T09:08:38.622Z,12.10
2022-11-08T09:11:08.167Z,12.30
2022-11-08T09:13:36.202Z,12.30
2022-11-08T09:16:04.469Z,12.40
2022-11-08T09:18:33.253Z,12.50
2022-11-08T09:21:04.337Z,12.50
2022-11-08T09:23:32.389Z,12.70
2022-11-08T09:26:01.659Z,12.70
2022-11-08T09:28:31.911Z,12.70
2022-11-08T09:31:04.718Z,12.90
2022-11-08T09:33:32.699Z,13.00
2022-11-08T09:36:03.820Z,13.00
2022-11-08T09:38:33.989Z,13.10
2022-11-08T09:41:21.628Z,13.10
2022-11-08T09:44:06.641Z,13.10
2022-11-08T09:46:41.809Z,13.10
2022-11-08T09:49:18.864Z,13.20
2022-11-08T09:51:47.591Z,13.30
2022-11-08T09:54:22.503Z,13.40
2022-11-08T09:56:53.164Z,13.50
2022-11-08T09:59:35.831Z,13.50
2022-11-08T10:02:04.463Z,13.70
2022-11-08T10:04:33.963Z,13.70
2022-11-08T10:07:15.520Z,13.90
2022-11-08T10:10:05.578Z,14.00
2022-11-08T10:12:43.821Z,14.00
2022-11-08T10:15:23.418Z,14.10
2022-11-08T10:18:08.572Z,14.30
2022-11-08T10:20:44.960Z,14.30
2022-11-08T10:23:22.588Z,14.30
2022-11-08T10:25:55.458Z,14.40
2022-11-08T10:28:25.524Z,14.40
2022-11-08T10:30:55.906Z,14.50
2022-11-08T10:33:33.396Z,14.50
2022-11-08T10:36:04.836Z,14.50
2022-11-08T10:38:37.101Z,14.70
2022-11-08T10:41:11.590Z,14.70
2022-11-08T10:43:43.127Z,14.80
2022-11-08T10:46:27.647Z,14.80
2022-11-08T10:48:59.977Z,14.90
2022-11-08T10:51:27.966Z,14.90
2022-11-08T10:53:55.999Z,14.90
2022-11-08T10:56:24.852Z,15.00
2022-11-08T10:58:52.994Z,15.10
2022-11-08T11:01:26.352Z,15.10
2022-11-08T11:03:54.835Z,15.10
2022-11-08T11:06:30.031Z,15.20
2022-11-08T11:08:59.927Z,15.10
2022-11-08T11:11:37.740Z,15.10
2022-11-08T11:14:16.596Z,15.10
2022-11-08T11:16:57.305Z,15.20
2022-11-08T11:19:26.716Z,15.20
2022-11-08T11:21:58.594Z,15.10
2022-11-08T11:24:26.766Z,15.20
2022-11-08T11:27:03.953Z,15.20
2022-11-08T11:29:33.875Z,15.40
2022-11-08T11:32:26.493Z,15.40
2022-11-08T11:34:57.993Z,15.30
2022-11-08T11:37:34.431Z,15.30
2022-11-08T11:40:08.269Z,15.50
2022-11-08T11:42:46.232Z,15.40
2022-11-08T11:45:20.004Z,15.40
2022-11-08T11:47:53.760Z,15.40
2022-11-08T11:50:30.856Z,15.40
2022-11-08T11:53:00.169Z,15.50
2022-11-08T11:55:43.839Z,15.60
2022-11-08T11:58:24.788Z,15.60
2022-11-08T12:01:02.276Z,15.70
2022-11-08T12:03:52.626Z,15.70
2022-11-08T12:06:31.233Z,15.70
2022-11-08T12:09:10.172Z,15.80
2022-11-08T12:11:47.823Z,15.90
2022-11-08T12:14:31.059Z,15.90
2022-11-08T12:17:11.325Z,15.90
2022-11-08T12:19:46.217Z,16.00
2022-11-08T12:22:44.711Z,16.00
2022-11-08T12:25:19.230Z,16.00
2022-11-08T12:27:53.419Z,15.90
2022-11-08T12:30:26.257Z,15.90
2022-11-08T12:33:09.008Z,15.90
2022-11-08T12:35:49.569Z,15.90
2022-11-08T12:38:27.304Z,16.00
2022-11-08T12:41:04.147Z,16.00
2022-11-08T12:43:49.577Z,16.10
2022-11-08T12:46:19.131Z,16.10
2022-11-08T12:49:19.965Z,16.20
2022-11-08T12:52:02.602Z,16.20
2022-11-08T12:54:37.516Z,16.20
2022-11-08T12:57:09.958Z,16.30
2022-11-08T12:59:42.554Z,16.30
2022-11-08T13:02:19.652Z,16.30
2022-11-08T13:05:00.786Z,16.30
2022-11-08T13:07:39.379Z,16.30
2022-11-08T13:10:15.813Z,16.20
2022-11-08T13:13:00.507Z,16.20
2022-11-08T13:15:29.492Z,16.20
2022-11-08T13:18:24.176Z,16.20
2022-11-08T13:20:52.538Z,16.10
2022-11-08T13:23:29.709Z,16.10
2022-11-08T13:26:13.547Z,16.00
2022-11-08T13:28:45.212Z,15.90
2022-11-08T13:31:29.530Z,15.80
2022-11-08T13:34:22.476Z,15.70
2022-11-08T13:37:09.696Z,15.70
2022-11-08T13:40:04.387Z,15.70
2022-11-08T13:42:40.616Z,15.60
2022-11-08T13:45:28.046Z,15.60
2022-11-08T13:47:58.722Z,15.60
2022-11-08T13:50:46.825Z,15.50
2022-11-08T13:53:54.721Z,15.50
2022-11-08T13:56:49.956Z,15.50
2022-11-08T13:59:55.050Z,15.40
2022-11-08T14:02:50.369Z,15.40
2022-11-08T14:05:32.590Z,15.40
2022-11-08T14:08:23.082Z,15.40
2022-11-08T14:11:21.383Z,15.30
2022-11-08T14:14:25.031Z,15.20
2022-11-08T14:17:03.741Z,15.20
2022-11-08T14:19:34.082Z,15.20
2022-11-08T14:22:05.051Z,15.20
2022-11-08T14:24:37.667Z,15.20
2022-11-08T14:27:05.880Z,15.10
2022-11-08T14:29:35.468Z,15.10
2022-11-08T14:32:06.593Z,15.10
2022-11-08T14:34:36.953Z,15.00
2022-11-08T14:37:06.681Z,15.00
2022-11-08T14:39:37.459Z,15.00
2022-11-08T14:42:18.619Z,14.90
2022-11-08T14:44:52.641Z,14.90
2022-11-08T14:47:27.588Z,14.80
2022-11-08T14:49:55.730Z,14.80
2022-11-08T14:52:29.074Z,14.70
2022-11-08T14:55:06.005Z,14.70
2022-11-08T14:57:37.745Z,14.60
2022-11-08T15:00:16.487Z,14.50
2022-11-08T15:02:47.742Z,14.60
2022-11-08T15:05:33.185Z,14.50
2022-11-08T15:08:02.749Z,14.50
2022-11-08T15:10:30.732Z,14.40
2022-11-08T15:12:59.113Z,14.30
2022-11-08T15:15:34.583Z,14.30
2022-11-08T15:18:13.492Z,14.30
2022-11-08T15:20:42.222Z,14.20
2022-11-08T15:23:28.479Z,14.10
2022-11-08T15:25:58.607Z,14.00
2022-11-08T15:28:34.431Z,14.00
2022-11-08T15:31:05.431Z,13.90
2022-11-08T15:33:37.539Z,13.90
2022-11-08T15:36:14.453Z,13.80
2022-11-08T15:38:43.891Z,13.80
2022-11-08T15:41:32.830Z,13.80
2022-11-08T15:44:20.624Z,13.80
2022-11-08T15:46:53.840Z,13.80
2022-11-08T15:49:24.073Z,13.70
2022-11-08T15:51:53.523Z,13.70
2022-11-08T15:54:23.111Z,13.70
2022-11-08T15:56:53.146Z,13.70
2022-11-08T15:59:24.106Z,13.70
2022-11-08T16:01:56.114Z,13.70
2022-11-08T16:04:26.269Z,13.70
2022-11-08T16:06:54.376Z,13.60
2022-11-08T16:09:22.456Z,13.60
2022-11-08T16:11:51.264Z,13.60
2022-11-08T16:14:23.574Z,13.50
2022-11-08T16:16:53.316Z,13.40
2022-11-08T16:19:23.724Z,13.40
2022-11-08T16:21:52.392Z,13.40
2022-11-08T16:24:20.485Z,13.40
2022-11-08T16:26:49.889Z,13.30
2022-11-08T16:29:21.923Z,13.30
2022-11-08T16:31:50.698Z,13.30
2022-11-08T16:34:21.073Z,13.30
2022-11-08T16:36:50.703Z,13.30
2022-11-08T16:39:22.264Z,13.20
2022-11-08T16:41:52.372Z,13.30
2022-11-08T16:44:20.453Z,13.30
2022-11-08T16:46:48.770Z,13.30
2022-11-08T16:49:24.969Z,13.30
2022-11-08T16:51:52.998Z,13.20
2022-11-08T16:54:24.020Z,13.20
2022-11-08T16:56:59.447Z,13.20
2022-11-08T16:59:40.193Z,13.20
2022-11-08T17:02:20.252Z,13.20
2022-11-08T17:04:49.593Z,13.20
2022-11-08T17:07:17.992Z,13.20
2022-11-08T17:09:46.087Z,13.10
2022-11-08T17:12:14.181Z,13.20
2022-11-08T17:14:42.322Z,13.10
2022-11-08T17:17:12.125Z,13.10
2022-11-08T17:19:40.232Z,13.20
2022-11-08T17:22:09.602Z,13.10
2022-11-08T17:24:37.596Z,13.00
2022-11-08T17:27:05.739Z,13.00
2022-11-08T17:29:33.779Z,13.00
2022-11-08T17:32:01.798Z,13.00
2022-11-08T17:34:29.891Z,13.00
2022-11-08T17:36:58.061Z,13.00
2022-11-08T17:39:27.551Z,13.00
2022-11-08T17:41:55.742Z,13.00
2022-11-08T17:44:23.769Z,13.00
2022-11-08T17:46:51.868Z,13.00
2022-11-08T17:49:19.898Z,12.90
2022-11-08T17:51:48.062Z,13.00
2022-11-08T17:54:16.519Z,12.90
2022-11-08T17:56:46.428Z,12.90
2022-11-08T17:59:16.813Z,12.90
2022-11-08T18:01:44.854Z,12.90
2022-11-08T18:04:12.901Z,12.90
2022-11-08T18:06:44.277Z,12.90
2022-11-08T18:09:13.374Z,12.90
2022-11-08T18:11:47.543Z,12.90
2022-11-08T18:14:18.465Z,12.90
2022-11-08T18:16:48.897Z,12.90
2022-11-08T18:19:17.026Z,12.90
2022-11-08T18:21:44.977Z,12.80
2022-11-08T18:24:13.236Z,12.80
2022-11-08T18:26:42.426Z,12.70
2022-11-08T18:29:10.628Z,12.70
2022-11-08T18:31:40.109Z,12.70
2022-11-08T18:34:08.409Z,12.70
2022-11-08T18:36:36.431Z,12.70
2022-11-08T18:39:04.749Z,12.70
2022-11-08T18:41:35.015Z,12.60
2022-11-08T18:44:05.346Z,12.60
2022-11-08T18:46:40.304Z,12.60
2022-11-08T18:49:12.595Z,12.60
2022-11-08T18:51:40.673Z,12.60
2022-11-08T18:54:08.699Z,12.60
2022-11-08T18:56:36.863Z,12.60
2022-11-08T18:59:04.840Z,12.60
2022-11-08T19:01:33.062Z,12.60
2022-11-08T19:04:01.232Z,12.60
2022-11-08T19:06:30.654Z,12.60
2022-11-08T19:08:58.800Z,12.50
2022-11-08T19:11:28.564Z,12.50
2022-11-08T19:13:57.570Z,12.40
2022-11-08T19:16:25.586Z,12.50
2022-11-08T19:18:53.820Z,12.50
2022-11-08T19:21:23.666Z,12.50
2022-11-08T19:23:57.114Z,12.50
2022-11-08T19:26:27.562Z,12.50
2022-11-08T19:28:56.851Z,12.60
2022-11-08T19:31:27.027Z,12.60
2022-11-08T19:33:55.868Z,12.50
2022-11-08T19:36:25.766Z,12.60
2022-11-08T19:38:55.895Z,12.50
2022-11-08T19:41:24.874Z,12.50
2022-11-08T19:43:53.272Z,12.50
2022-11-08T19:46:23.566Z,12.50
2022-11-08T19:48:53.226Z,12.40
2022-11-08T19:51:25.085Z,12.40
2022-11-08T19:53:58.740Z,12.40
2022-11-08T19:56:50.174Z,12.40
2022-11-08T19:59:15.528Z,12.30
2022-11-08T20:01:43.671Z,12.30
2022-11-08T20:04:14.355Z,12.30
2022-11-08T20:06:42.743Z,12.30
2022-11-08T20:09:12.462Z,12.30
2022-11-08T20:11:41.911Z,12.30
2022-11-08T20:14:13.858Z,12.30
2022-11-08T20:16:47.906Z,12.20
2022-11-08T20:19:19.282Z,12.20
2022-11-08T20:21:47.482Z,12.20
2022-11-08T20:24:18.788Z,12.10
2022-11-08T20:26:46.759Z,12.10
2022-11-08T20:29:15.072Z,12.10
2022-11-08T20:31:43.161Z,12.10
2022-11-08T20:34:12.979Z,12.10
2022-11-08T20:36:44.082Z,12.10
2022-11-08T20:39:13.899Z,12.10
2022-11-08T20:41:43.392Z,12.10
2022-11-08T20:44:12.006Z,12.10
2022-11-08T20:46:40.422Z,12.00
2022-11-08T20:49:08.884Z,12.00
2022-11-08T20:51:37.030Z,11.90
2022-11-08T20:54:05.171Z,11.90
2022-11-08T20:56:35.835Z,11.90
2022-11-08T20:59:06.019Z,11.90
2022-11-08T21:01:34.586Z,11.90
2022-11-08T21:04:02.972Z,11.80
2022-11-08T21:06:35.948Z,11.80
2022-11-08T21:09:32.492Z,11.80
2022-11-08T21:11:55.529Z,11.80
2022-11-08T21:14:26.235Z,11.80
2022-11-08T21:19:42.280Z,11.80
2022-11-08T21:22:18.281Z,11.70
2022-11-08T21:24:47.741Z,11.80
2022-11-08T21:27:16.794Z,11.80
2022-11-08T21:29:46.275Z,11.80
2022-11-08T21:32:14.711Z,11.70
2022-11-08T21:34:45.971Z,11.80
2022-11-08T21:37:15.190Z,11.70
2022-11-08T21:39:43.429Z,11.80
2022-11-08T21:42:11.638Z,11.80
2022-11-08T21:44:39.582Z,11.80
2022-11-08T21:47:08.886Z,11.80
2022-11-08T21:49:38.923Z,11.80
2022-11-08T21:52:06.966Z,11.80
2022-11-08T21:54:34.985Z,11.80
2022-11-08T21:57:03.067Z,11.80
2022-11-08T21:59:31.035Z,11.80
2022-11-08T22:01:59.009Z,11.80
2022-11-08T22:04:30.432Z,11.80
2022-11-08T22:06:58.563Z,11.80
2022-11-08T22:09:26.698Z,11.80
2022-11-08T22:11:54.775Z,11.70
2022-11-08T22:14:22.808Z,11.70
2022-11-08T22:16:50.883Z,11.70
2022-11-08T22:19:18.903Z,11.70
2022-11-08T22:21:48.201Z,11.60
2022-11-08T22:24:18.451Z,11.70
2022-11-08T22:26:46.955Z,11.70
2022-11-08T22:29:17.934Z,11.70
2022-11-08T22:31:46.055Z,11.70
2022-11-08T22:34:14.382Z,11.70
2022-11-08T22:36:46.015Z,11.70
2022-11-08T22:39:20.185Z,11.70
2022-11-08T22:41:49.704Z,11.80
2022-11-08T22:44:18.649Z,11.80
2022-11-08T22:46:48.314Z,11.80
2022-11-08T22:49:17.147Z,11.90
2022-11-08T22:51:47.984Z,12.00
2022-11-08T22:54:17.393Z,12.00
2022-11-08T22:56:45.446Z,12.10
2022-11-08T22:59:13.871Z,12.10
2022-11-08T23:01:42.617Z,12.00
2022-11-08T23:04:11.629Z,12.00
2022-11-08T23:06:40.586Z,12.00
2022-11-08T23:09:09.009Z,12.10
2022-11-08T23:11:56.295Z,12.10
2022-11-08T23:14:41.917Z,12.10
2022-11-08T23:17:09.931Z,12.10
2022-11-08T23:19:54.444Z,12.10
2022-11-08T23:22:42.334Z,12.00
2022-11-08T23:25:12.607Z,12.00
2022-11-08T23:27:59.302Z,12.10
2022-11-08T23:30:44.747Z,12.10
2022-11-08T23:33:15.088Z,12.10
2022-11-08T23:35:59.265Z,12.10
2022-11-08T23:38:29.971Z,12.10
2022-11-08T23:41:18.189Z,12.00
2022-11-08T23:44:05.047Z,12.00
2022-11-08T23:46:33.042Z,12.00
2022-11-08T23:49:04.145Z,12.00
2022-11-08T23:51:32.308Z,12.00
2022-11-08T23:54:02.626Z,12.00
2022-11-08T23:56:30.656Z,12.00
2022-11-08T23:59:00.823Z,11.90
